Weather reports worldwide

Advertisment
La Seo D'Urgell, Spain (8115): temperature & dewpoint: 20.10.2020 23:00:00 - 26.10.2020 23:00:00 (CET)La Seo D'Urgell, Spain (8115): wind speed & gusts: 20.10.2020 23:00:00 - 26.10.2020 23:00:00 (CET)La Seo D'Urgell, Spain (8115): wind direction: 20.10.2020 23:00:00 - 26.10.2020 23:00:00 (CET)La Seo D'Urgell, Spain (8115): precipitation: 20.10.2020 23:00:00 - 26.10.2020 23:00:00 (CET)
Date & Time tt [°C] td [°C] ff [km/h] ff [kn] fx [km/h] fx [kn] dd rr [mm]
26.10.2020 23:00:00 - - - - - - - -
26.10.2020 22:00:00 4,6 2,3 0 0 4 2 ESE 0,0
26.10.2020 21:00:00 5,6 1,7 0 0 4 2 NNW 0,0
26.10.2020 20:00:00 7,8 0,2 1 1 6 4 NNE 0,0
26.10.2020 19:00:00 11,3 -1,4 1 1 22 12 N -
26.10.2020 18:00:00 11,8 -1,7 4 2 19 10 W 0,0
26.10.2020 17:00:00 12,9 -1,4 7 4 18 10 WSW 0,0
26.10.2020 16:00:00 13,7 -1,2 8 4 23 12 W 0,0
26.10.2020 15:00:00 13,9 -0,3 5 3 15 8 W 0,0
26.10.2020 14:00:00 14,1 2,7 2 1 6 4 ENE 0,0
26.10.2020 13:00:00 13,7 4,3 2 1 8 4 SSW -
26.10.2020 12:00:00 11,9 4,1 3 2 10 5 ENE 0,0
26.10.2020 11:00:00 10,8 5,3 3 2 8 5 ENE 0,0
26.10.2020 10:00:00 8,7 6,5 1 1 4 2 W 0,0
26.10.2020 09:00:00 8,1 6,1 1 1 9 5 NE 0,0
26.10.2020 08:00:00 7,9 5,1 1 1 11 6 NE 0,0
26.10.2020 07:00:00 8,0 7,1 2 1 5 3 NE -
26.10.2020 06:00:00 8,1 7,1 1 0 5 3 ESE 0,0
26.10.2020 05:00:00 8,2 7,1 0 0 4 2 N 0,0
26.10.2020 04:00:00 8,8 7,6 1 1 5 3 WSW 0,0
26.10.2020 03:00:00 9,4 8,0 1 0 6 3 NW 0,0
26.10.2020 02:00:00 10,2 8,0 1 0 13 7 W 0,0
26.10.2020 01:00:00 10,7 9,4 1 0 6 4 W -
26.10.2020 00:00:00 11,0 8,9 1 0 4 2 WSW 0,0
25.10.2020 23:00:00 11,3 9,0 1 0 4 2 SSW 0,0
25.10.2020 22:00:00 11,5 8,5 1 1 5 3 N 0,0
25.10.2020 21:00:00 12,1 7,1 2 1 6 3 SSW 0,0
25.10.2020 20:00:00 13,0 6,5 1 1 6 4 SW 0,0
25.10.2020 19:00:00 13,9 5,5 3 2 7 4 NNW -
25.10.2020 18:00:00 14,8 4,1 3 2 14 7 WSW 0,0
25.10.2020 17:00:00 15,5 4,3 6 3 19 10 SW 0,0
25.10.2020 16:00:00 17,6 4,8 7 4 20 11 WSW 0,0
25.10.2020 15:00:00 18,0 3,8 7 4 24 13 WSW 0,0
25.10.2020 14:00:00 17,3 6,5 1 0 8 5 S 0,0
25.10.2020 13:00:00 14,6 5,6 1 1 9 5 SE -
25.10.2020 12:00:00 12,7 5,8 2 1 7 4 SSW 0,0
25.10.2020 11:00:00 9,7 6,4 2 1 9 5 SSW 0,0
25.10.2020 10:00:00 5,7 5,1 0 0 1 1 W 0,0
25.10.2020 09:00:00 3,9 3,2 0 0 0 0 N 0,0
25.10.2020 08:00:00 3,2 2,7 0 0 0 0 N 0,0
25.10.2020 07:00:00 2,8 2,3 0 0 0 0 N -
25.10.2020 06:00:00 2,8 2,3 0 0 0 0 NE 0,0
25.10.2020 05:00:00 3,2 2,7 0 0 0 0 ENE 0,0
25.10.2020 04:00:00 3,5 2,9 0 0 0 0 N 0,0
25.10.2020 03:00:00 4,1 3,4 0 0 0 0 N 0,0
25.10.2020 02:00:00 4,6 3,9 0 0 0 0 N 0,0
25.10.2020 01:00:00 - - - - - - - -
25.10.2020 00:00:00 5,2 4,1 0 0 0 0 NNE 0,0
24.10.2020 23:00:00 5,9 4,8 0 0 0 0 N 0,0
24.10.2020 22:00:00 6,4 5,1 0 0 0 0 N 0,0
24.10.2020 21:00:00 7,3 5,9 0 0 2 1 N 0,0
24.10.2020 20:00:00 8,3 6,2 0 0 4 2 SSW 0,0
24.10.2020 19:00:00 10,3 7,0 0 0 4 2 W -
24.10.2020 18:00:00 13,4 5,8 2 1 8 5 SSW 0,0
24.10.2020 17:00:00 15,7 5,6 1 0 11 6 NW 0,0
24.10.2020 16:00:00 18,2 5,5 3 2 8 5 W 0,0
24.10.2020 15:00:00 19,5 7,0 0 0 8 4 SW 0,0
24.10.2020 14:00:00 18,4 5,6 3 2 9 5 SW 0,0
24.10.2020 13:00:00 - - - - - - - -
24.10.2020 12:00:00 14,5 5,3 3 1 7 4 SSW 0,0
24.10.2020 11:00:00 11,5 6,4 1 1 7 4 SSE 0,0
24.10.2020 10:00:00 7,6 6,7 1 0 5 3 E 0,0
24.10.2020 09:00:00 4,7 4,1 1 0 4 2 ESE 0,0
24.10.2020 08:00:00 4,3 3,8 0 0 5 3 ENE 0,0
24.10.2020 07:00:00 4,6 3,9 0 0 3 2 SE -
24.10.2020 06:00:00 4,4 3,8 0 0 4 2 NNE 0,0
24.10.2020 05:00:00 4,1 3,6 1 1 2 1 S 0,0
24.10.2020 04:00:00 4,4 3,6 0 0 3 2 ENE 0,0
24.10.2020 03:00:00 4,8 4,1 1 1 4 2 NNE 0,0
24.10.2020 02:00:00 5,6 4,8 1 0 3 2 NE 0,0
24.10.2020 01:00:00 6,4 5,5 0 0 4 2 SW -
24.10.2020 00:00:00 7,2 6,1 1 1 4 2 ENE 0,0
23.10.2020 23:00:00 7,4 6,2 2 1 5 3 NNW 0,0
23.10.2020 22:00:00 7,8 6,5 0 0 6 3 N 0,0
23.10.2020 21:00:00 8,6 6,7 0 0 5 3 N 0,0
23.10.2020 20:00:00 10,0 7,4 1 0 5 3 NNE 0,0
23.10.2020 19:00:00 11,4 7,6 0 0 4 2 W -
23.10.2020 18:00:00 13,7 6,1 2 1 11 6 SW 0,0
23.10.2020 17:00:00 16,3 4,3 5 3 18 10 SW 0,0
23.10.2020 16:00:00 18,9 5,0 6 3 16 8 SSW 0,0
23.10.2020 15:00:00 19,0 6,1 4 2 16 8 WSW 0,0
23.10.2020 14:00:00 17,2 6,1 6 3 18 10 WSW 0,0
23.10.2020 13:00:00 19,0 7,4 5 3 13 7 SW -
23.10.2020 12:00:00 18,1 11,9 1 1 7 4 SSE 0,0
23.10.2020 11:00:00 14,1 11,4 0 0 4 2 SSW 0,0
23.10.2020 10:00:00 13,0 11,9 1 1 6 3 NE 0,0
23.10.2020 09:00:00 11,8 11,0 0 0 3 2 WNW 0,0
23.10.2020 08:00:00 11,1 10,2 0 0 2 1 N 0,0
23.10.2020 07:00:00 11,4 10,4 0 0 0 0 N -
23.10.2020 06:00:00 11,5 10,5 0 0 3 2 N 0,0
23.10.2020 05:00:00 11,8 10,9 0 0 1 1 N 0,0
23.10.2020 04:00:00 11,9 11,0 0 0 2 1 N 0,0
23.10.2020 03:00:00 12,1 11,1 0 0 2 1 SSE 0,0
23.10.2020 02:00:00 12,2 11,2 0 0 2 1 N 0,0
23.10.2020 01:00:00 12,2 11,2 0 0 3 2 N -
23.10.2020 00:00:00 12,2 11,2 0 0 4 2 N 0,0
22.10.2020 23:00:00 12,4 11,4 0 0 4 2 N 0,0
22.10.2020 22:00:00 12,5 11,6 0 0 2 1 N 0,0
22.10.2020 21:00:00 12,6 11,7 0 0 0 0 N 0,0
22.10.2020 20:00:00 12,7 11,8 0 0 4 2 N 0,0
22.10.2020 19:00:00 12,8 11,7 0 0 5 3 N -
22.10.2020 18:00:00 12,9 11,8 0 0 1 1 N 0,0
22.10.2020 17:00:00 13,2 11,9 0 0 3 1 ENE 0,0
22.10.2020 16:00:00 13,7 12,4 0 0 3 2 N 0,0
22.10.2020 15:00:00 13,5 12,4 0 0 5 3 N 0,0
22.10.2020 14:00:00 13,3 12,2 0 0 6 4 N 0,0
22.10.2020 13:00:00 12,8 11,9 2 1 9 5 ENE -
22.10.2020 12:00:00 12,3 11,7 0 0 3 1 WSW 0,0
22.10.2020 11:00:00 12,0 11,3 0 0 4 2 N 0,0
22.10.2020 10:00:00 11,5 10,9 3 1 6 3 NNE 0,0
22.10.2020 09:00:00 11,3 10,6 1 0 4 2 WNW 0,0
22.10.2020 08:00:00 10,9 10,3 0 0 4 2 WNW 0,0
22.10.2020 07:00:00 10,6 10,0 1 0 5 3 NE -
22.10.2020 06:00:00 10,6 10,0 1 1 4 2 WSW 0,0
22.10.2020 05:00:00 10,3 9,7 1 1 6 3 ENE 0,0
22.10.2020 04:00:00 9,8 9,2 3 2 5 3 ENE 0,0
22.10.2020 03:00:00 9,2 8,7 0 0 4 2 E 0,0
22.10.2020 02:00:00 9,2 8,7 2 1 4 2 NE 0,0
22.10.2020 01:00:00 9,6 8,8 1 1 4 2 ENE -
22.10.2020 00:00:00 10,7 9,6 1 0 3 2 ENE 0,0
21.10.2020 23:00:00 11,1 9,8 1 1 5 3 NNE 0,0
21.10.2020 22:00:00 11,8 10,2 0 0 4 2 N 0,0
21.10.2020 21:00:00 12,8 10,6 0 0 4 2 W 0,0
21.10.2020 20:00:00 13,7 10,9 2 1 5 3 WSW 0,0
21.10.2020 19:00:00 15,2 10,8 1 0 6 3 S -
21.10.2020 18:00:00 17,8 9,4 0 0 8 5 W 0,0
21.10.2020 17:00:00 20,0 8,7 4 2 14 7 W 0,0
21.10.2020 16:00:00 21,2 8,8 6 3 21 11 W 0,0
21.10.2020 15:00:00 20,9 8,8 6 3 16 9 WSW 0,0
21.10.2020 14:00:00 22,9 10,3 1 1 6 4 S 0,0
21.10.2020 13:00:00 21,0 11,0 1 0 4 2 E -
21.10.2020 12:00:00 16,2 12,3 3 2 6 4 WSW 0,0
21.10.2020 11:00:00 12,4 11,0 0 0 6 3 W 0,0
21.10.2020 10:00:00 11,9 10,8 1 1 5 3 W 0,0
21.10.2020 09:00:00 10,9 9,8 1 1 5 3 S 0,0
21.10.2020 08:00:00 10,2 9,2 3 2 6 3 SW 0,0
21.10.2020 07:00:00 9,7 8,7 2 1 6 3 NE -
21.10.2020 06:00:00 9,8 8,5 1 1 10 6 N 0,0
21.10.2020 05:00:00 9,0 8,4 1 1 14 7 N 0,0
21.10.2020 04:00:00 7,6 7,0 0 0 7 4 SSW 0,0
21.10.2020 03:00:00 7,1 6,5 1 1 5 3 S 0,0
21.10.2020 02:00:00 7,2 6,5 1 0 5 3 N 0,0
21.10.2020 01:00:00 7,3 6,7 0 0 6 4 SSW -
21.10.2020 00:00:00 6,9 6,2 2 1 6 3 NNE 0,0
20.10.2020 23:00:00 6,9 6,1 1 1 6 3 NE 0,0

tt = temperature
td = dewpoint
ff = wind speed
fx = gusts
dd = wind direction
rr = precipitation

Next stations